createdAt,value
2022-12-05T00:02:25.405Z,3.92
2022-12-05T00:07:29.328Z,4.00
2022-12-05T00:12:33.649Z,4.06
2022-12-05T00:17:36.558Z,4.00
2022-12-05T00:22:39.893Z,4.15
2022-12-05T00:27:44.135Z,4.03
2022-12-05T00:32:47.077Z,3.84
2022-12-05T00:37:50.055Z,3.91
2022-12-05T00:42:54.343Z,3.81
2022-12-05T00:47:57.331Z,3.93
2022-12-05T00:53:00.333Z,3.94
2022-12-05T00:58:04.742Z,4.02
2022-12-05T01:03:07.734Z,4.06
2022-12-05T01:08:10.725Z,4.11
2022-12-05T01:13:15.055Z,4.05
2022-12-05T01:18:18.157Z,4.02
2022-12-05T01:23:21.385Z,3.92
2022-12-05T01:28:25.697Z,3.98
2022-12-05T01:33:28.590Z,3.96
2022-12-05T01:38:31.564Z,3.96
2022-12-05T01:43:54.840Z,4.18
2022-12-05T01:49:02.862Z,4.11
2022-12-05T01:54:07.185Z,4.04
2022-12-05T01:59:12.847Z,4.03
2022-12-05T02:04:16.071Z,4.06
2022-12-05T02:09:18.967Z,4.10
2022-12-05T02:14:32.608Z,4.16
2022-12-05T02:20:04.619Z,4.10
2022-12-05T02:25:23.225Z,4.05
2022-12-05T02:30:28.157Z,4.13
2022-12-05T02:35:42.365Z,4.07
2022-12-05T02:40:52.861Z,3.90
2022-12-05T02:46:02.020Z,4.04
2022-12-05T02:51:09.637Z,4.10
2022-12-05T02:56:13.297Z,3.98
2022-12-05T03:01:18.152Z,3.91
2022-12-05T03:06:25.336Z,4.04
2022-12-05T03:11:31.789Z,3.95
2022-12-05T03:16:40.007Z,4.11
2022-12-05T03:21:50.885Z,4.06
2022-12-05T03:27:02.409Z,4.06
2022-12-05T03:32:11.897Z,4.12
2022-12-05T03:37:22.800Z,3.93
2022-12-05T03:42:32.257Z,3.94
2022-12-05T03:47:44.742Z,3.94
2022-12-05T03:53:18.700Z,3.92
2022-12-05T03:58:23.751Z,3.93
2022-12-05T04:03:39.589Z,3.92
2022-12-05T04:08:48.269Z,3.77
2022-12-05T04:13:54.038Z,4.02
2022-12-05T04:19:03.061Z,3.94
2022-12-05T04:24:26.581Z,3.93
2022-12-05T04:29:35.828Z,3.91
2022-12-05T04:34:43.141Z,3.91
2022-12-05T04:39:52.277Z,3.97
2022-12-05T04:44:58.566Z,4.06
2022-12-05T04:50:05.670Z,4.04
2022-12-05T04:55:11.536Z,4.08
2022-12-05T05:00:14.986Z,3.88
2022-12-05T05:05:21.494Z,3.78
2022-12-05T05:10:36.615Z,3.91
2022-12-05T05:15:39.610Z,3.92
2022-12-05T05:20:43.974Z,3.94
2022-12-05T05:25:46.840Z,3.99
2022-12-05T05:30:49.991Z,3.91
2022-12-05T05:35:54.309Z,3.96
2022-12-05T05:40:57.159Z,4.01
2022-12-05T05:46:00.130Z,4.06
2022-12-05T05:51:06.382Z,3.98
2022-12-05T05:56:11.346Z,4.04
2022-12-05T06:01:17.227Z,4.12
2022-12-05T06:06:21.983Z,4.13
2022-12-05T06:11:27.302Z,4.05
2022-12-05T06:16:31.496Z,4.06
2022-12-05T06:21:35.922Z,3.98
2022-12-05T06:26:38.846Z,4.01
2022-12-05T06:31:42.895Z,4.02
2022-12-05T06:36:47.213Z,4.05
2022-12-05T06:41:50.134Z,4.11
2022-12-05T06:46:53.045Z,4.10
2022-12-05T06:51:57.285Z,4.28
2022-12-05T06:57:00.153Z,4.15
2022-12-05T07:02:03.274Z,4.13
2022-12-05T07:07:07.749Z,4.19
2022-12-05T07:12:10.831Z,4.25
2022-12-05T07:17:13.831Z,4.10
2022-12-05T07:22:18.541Z,4.06
2022-12-05T07:27:26.811Z,4.04
2022-12-05T07:32:32.988Z,4.02
2022-12-05T07:37:37.359Z,4.02
2022-12-05T07:42:40.265Z,4.10
2022-12-05T07:47:43.283Z,4.17
2022-12-05T07:52:47.595Z,4.22
2022-12-05T07:57:50.510Z,4.26
2022-12-05T08:02:53.476Z,4.35
2022-12-05T08:07:57.899Z,4.03
2022-12-05T08:13:00.889Z,3.74
2022-12-05T08:18:03.788Z,3.64
2022-12-05T08:23:08.052Z,3.91
2022-12-05T08:28:10.962Z,3.84
2022-12-05T08:33:13.906Z,3.83
2022-12-05T08:38:18.176Z,4.19
2022-12-05T08:43:21.057Z,4.22
2022-12-05T08:48:28.947Z,4.52
2022-12-05T08:53:33.947Z,4.64
2022-12-05T08:58:37.047Z,4.24
2022-12-05T09:03:46.042Z,4.12
2022-12-05T09:08:55.178Z,4.04
2022-12-05T09:13:59.863Z,4.03
2022-12-05T09:19:03.154Z,3.98
2022-12-05T09:24:07.606Z,4.11
2022-12-05T09:29:16.298Z,4.03
2022-12-05T09:34:20.237Z,3.88
2022-12-05T09:39:25.831Z,4.16
2022-12-05T09:44:42.230Z,4.10
2022-12-05T09:49:51.184Z,4.27
2022-12-05T09:54:56.819Z,4.10
2022-12-05T10:00:02.022Z,4.39
2022-12-05T10:05:29.052Z,4.30
2022-12-05T10:10:44.642Z,4.19
2022-12-05T10:15:56.829Z,4.17
2022-12-05T10:21:04.735Z,4.06
2022-12-05T10:26:13.714Z,4.07
2022-12-05T10:31:20.239Z,4.24
2022-12-05T10:36:26.488Z,4.25
2022-12-05T10:41:30.844Z,4.44
2022-12-05T10:46:33.926Z,4.29
2022-12-05T10:51:37.866Z,4.48
2022-12-05T10:56:44.909Z,4.36
2022-12-05T11:01:50.986Z,4.41
2022-12-05T11:06:58.314Z,4.46
2022-12-05T11:12:20.351Z,4.61
2022-12-05T11:17:26.630Z,4.44
2022-12-05T11:22:34.625Z,4.39
2022-12-05T11:27:38.847Z,4.06
2022-12-05T11:32:41.842Z,4.19
2022-12-05T11:37:47.406Z,4.30
2022-12-05T11:43:12.428Z,3.97
2022-12-05T11:48:36.822Z,4.40
2022-12-05T11:54:16.110Z,4.43
2022-12-05T11:59:45.097Z,4.28
2022-12-05T12:04:56.407Z,4.42
2022-12-05T12:10:11.965Z,4.12
2022-12-05T12:15:38.546Z,4.17
2022-12-05T12:20:56.599Z,4.13
2022-12-05T12:26:08.999Z,4.40
2022-12-05T12:31:40.640Z,4.21
2022-12-05T12:36:49.526Z,4.30
2022-12-05T12:42:25.183Z,4.24
2022-12-05T12:47:42.371Z,4.44
2022-12-05T12:52:58.782Z,4.44
2022-12-05T12:58:12.815Z,4.31
2022-12-05T13:03:22.805Z,4.33
2022-12-05T13:08:31.080Z,4.43
2022-12-05T13:13:37.607Z,4.55
2022-12-05T13:18:41.873Z,4.40
2022-12-05T13:23:50.358Z,4.39
2022-12-05T13:28:56.170Z,4.51
2022-12-05T13:34:00.550Z,4.59
2022-12-05T13:39:23.420Z,4.65
2022-12-05T13:44:34.364Z,4.65
2022-12-05T13:49:45.548Z,4.40
2022-12-05T13:54:59.637Z,4.46
2022-12-05T14:00:06.201Z,4.14
2022-12-05T14:05:46.278Z,3.96
2022-12-05T14:11:11.069Z,4.10
2022-12-05T14:16:47.989Z,4.37
2022-12-05T14:22:03.722Z,4.28
2022-12-05T14:27:12.569Z,4.31
2022-12-05T14:32:26.307Z,4.38
2022-12-05T14:37:34.762Z,4.38
2022-12-05T14:42:42.462Z,4.45
2022-12-05T14:47:52.863Z,4.52
2022-12-05T14:53:23.375Z,4.42
2022-12-05T14:58:34.485Z,4.43
2022-12-05T15:03:41.465Z,4.44
2022-12-05T15:08:48.995Z,4.38
2022-12-05T15:13:52.231Z,4.30
2022-12-05T15:18:59.847Z,4.26
2022-12-05T15:24:07.453Z,4.53
2022-12-05T15:29:14.021Z,4.59
2022-12-05T15:34:23.096Z,4.36
2022-12-05T15:39:28.682Z,4.31
2022-12-05T15:44:37.365Z,4.03
2022-12-05T15:49:41.080Z,4.08
2022-12-05T15:54:46.362Z,4.34
2022-12-05T15:59:53.140Z,4.30
2022-12-05T16:04:59.502Z,4.07
2022-12-05T16:10:03.835Z,4.16
2022-12-05T16:15:13.682Z,4.30
2022-12-05T16:20:25.718Z,4.11
2022-12-05T16:25:33.759Z,3.86
2022-12-05T16:30:38.365Z,3.87
2022-12-05T16:35:43.247Z,3.92
2022-12-05T16:40:59.185Z,3.90
2022-12-05T16:46:42.025Z,4.06
2022-12-05T16:51:47.245Z,4.29
2022-12-05T16:56:51.653Z,4.07
2022-12-05T17:01:54.635Z,3.87
2022-12-05T17:12:05.621Z,3.72
2022-12-05T17:17:13.614Z,3.76
2022-12-05T17:22:17.022Z,3.87
2022-12-05T17:27:22.785Z,3.49
2022-12-05T17:32:25.737Z,3.70
2022-12-05T17:37:28.742Z,3.80
2022-12-05T17:42:33.056Z,3.84
2022-12-05T17:47:36.133Z,3.93
2022-12-05T17:52:39.098Z,4.06
2022-12-05T17:57:43.371Z,4.05
2022-12-05T18:02:46.954Z,3.89
2022-12-05T18:07:49.914Z,3.92
2022-12-05T18:12:54.186Z,3.91
2022-12-05T18:17:57.031Z,3.85
2022-12-05T18:23:01.357Z,3.80
2022-12-05T18:28:05.806Z,3.77
2022-12-05T18:33:08.696Z,3.41
2022-12-05T18:38:12.432Z,3.55
2022-12-05T18:43:16.739Z,3.66
2022-12-05T18:48:48.252Z,3.80
2022-12-05T18:53:51.523Z,3.74
2022-12-05T18:58:57.609Z,3.77
2022-12-05T19:04:02.435Z,3.92
2022-12-05T19:09:09.138Z,4.01
2022-12-05T19:14:13.833Z,3.65
2022-12-05T19:19:17.499Z,3.84
2022-12-05T19:24:20.558Z,3.73
2022-12-05T19:29:24.934Z,3.55
2022-12-05T19:34:27.996Z,3.63
2022-12-05T19:39:31.009Z,3.44
2022-12-05T19:44:35.347Z,3.33
2022-12-05T19:49:38.291Z,3.51
2022-12-05T19:54:41.184Z,3.54
2022-12-05T19:59:45.917Z,3.50
2022-12-05T20:04:49.157Z,3.66
2022-12-05T20:09:52.101Z,3.66
2022-12-05T20:14:57.706Z,3.48
2022-12-05T20:20:00.929Z,3.52
2022-12-05T20:25:04.871Z,3.34
2022-12-05T20:30:10.140Z,3.31
2022-12-05T20:35:13.104Z,3.25
2022-12-05T20:40:16.166Z,3.32
2022-12-05T20:45:20.454Z,3.44
2022-12-05T20:50:23.458Z,3.39
2022-12-05T20:55:26.370Z,3.30
2022-12-05T21:00:30.670Z,3.35
2022-12-05T21:05:35.683Z,3.20
2022-12-05T21:10:38.595Z,3.36
2022-12-05T21:15:43.140Z,3.34
2022-12-05T21:20:46.174Z,3.41
2022-12-05T21:25:49.164Z,3.36
2022-12-05T21:30:53.510Z,3.44
2022-12-05T21:35:56.619Z,3.59
2022-12-05T21:40:59.731Z,3.43
2022-12-05T21:46:04.613Z,3.22
2022-12-05T21:51:08.870Z,3.43
2022-12-05T21:56:15.503Z,3.32
2022-12-05T22:01:21.612Z,3.32
2022-12-05T22:06:24.566Z,3.09
2022-12-05T22:11:27.640Z,2.95
2022-12-05T22:16:33.460Z,2.99
2022-12-05T22:21:36.747Z,3.02
2022-12-05T22:26:39.644Z,2.83
2022-12-05T22:31:43.986Z,2.95
2022-12-05T22:36:49.363Z,3.09
2022-12-05T22:41:52.240Z,3.04
2022-12-05T22:46:56.505Z,3.13
2022-12-05T22:51:59.416Z,3.05
2022-12-05T22:57:02.643Z,3.26
2022-12-05T23:02:06.939Z,3.06
2022-12-05T23:07:09.887Z,2.92
2022-12-05T23:12:12.854Z,2.95
2022-12-05T23:17:17.268Z,3.07
2022-12-05T23:22:20.252Z,2.88
2022-12-05T23:27:23.301Z,2.94
2022-12-05T23:32:27.771Z,2.94
2022-12-05T23:37:30.754Z,2.95
2022-12-05T23:42:33.794Z,2.83
2022-12-05T23:47:38.246Z,2.74
2022-12-05T23:52:41.300Z,2.83
2022-12-05T23:57:44.321Z,2.74
